KYKN/YKN METAR and TAF weather

Enter ICAO airport designator
Station Type Date Time Source
KYKN METAR 2019/02/23 00:34 UTC NOAA

KYKN 230034Z AUTO 09007KT 6SM -SN BR FEW020 SCT025 OVC037 M04/M06 A3010 RMK AO2 P0000 FZRANO


Station Type Date Time Source
KYKN Decoded METAR 2019/02/23 00:34 UTC NOAA

Yankton, Chan Gurney Municipal Airport, SD, United States (KYKN) 42-55N 097-23W
Feb 22, 2019 - 07:34 PM EST / 2019.02.23 0034 UTC
Wind: from the E (090 degrees) at 8 MPH (7 KT):0
Visibility: 6 mile(s):0
Sky conditions: overcast
Weather: light snow; mist
Precipitation last hour: A trace
Temperature: 24 F (-4 C)
Windchill: 15 F (-9 C):1
Dew Point: 21 F (-6 C)
Relative Humidity: 85%
Pressure (altimeter): 30.1 in. Hg (1019 hPa)
ob: KYKN 230034Z AUTO 09007KT 6SM -SN BR FEW020 SCT025 OVC037 M04/M06 A3010 RMK AO2 P0000 FZRANO
cycle: 0

Station Type Date Time Source
KYKN TAF UTC NOAA

Error!


Example: see airport list